sensor_id;sensor_type;location;lat;lon;timestamp;pressure;altitude;pressure_sealevel;temperature;humidity
53546;BME280;39432;51.902;10.844;2024-03-22T00:00:08;100116.97;;;7.44;100.00
53546;BME280;39432;51.902;10.844;2024-03-22T00:02:38;100102.03;;;7.28;100.00
53546;BME280;39432;51.902;10.844;2024-03-22T00:05:06;100096.66;;;7.22;100.00
53546;BME280;39432;51.902;10.844;2024-03-22T00:07:35;100092.06;;;7.40;100.00
53546;BME280;39432;51.902;10.844;2024-03-22T00:10:07;100091.19;;;7.03;100.00
53546;BME280;39432;51.902;10.844;2024-03-22T00:12:33;100092.28;;;6.96;100.00
53546;BME280;39432;51.902;10.844;2024-03-22T00:15:02;100091.50;;;6.89;100.00
53546;BME280;39432;51.902;10.844;2024-03-22T00:17:29;100091.56;;;6.82;100.00
53546;BME280;39432;51.902;10.844;2024-03-22T00:19:57;100090.22;;;6.91;100.00
53546;BME280;39432;51.902;10.844;2024-03-22T00:22:26;100091.44;;;6.95;100.00
53546;BME280;39432;51.902;10.844;2024-03-22T00:24:52;100087.00;;;7.26;100.00
53546;BME280;39432;51.902;10.844;2024-03-22T00:27:22;100088.84;;;7.50;100.00
53546;BME280;39432;51.902;10.844;2024-03-22T00:29:50;100082.03;;;7.78;100.00
53546;BME280;39432;51.902;10.844;2024-03-22T00:32:16;100079.72;;;8.30;100.00
53546;BME280;39432;51.902;10.844;2024-03-22T00:34:44;100061.16;;;7.53;100.00
53546;BME280;39432;51.902;10.844;2024-03-22T00:37:11;100062.72;;;7.98;100.00
53546;BME280;39432;51.902;10.844;2024-03-22T00:39:42;100059.38;;;8.44;100.00
53546;BME280;39432;51.902;10.844;2024-03-22T00:42:09;100055.38;;;7.25;100.00
53546;BME280;39432;51.902;10.844;2024-03-22T00:44:41;100059.63;;;7.94;100.00
53546;BME280;39432;51.902;10.844;2024-03-22T00:47:10;100060.97;;;8.03;100.00
53546;BME280;39432;51.902;10.844;2024-03-22T00:49:37;100059.38;;;8.86;100.00
53546;BME280;39432;51.902;10.844;2024-03-22T00:52:04;100045.88;;;8.49;100.00
53546;BME280;39432;51.902;10.844;2024-03-22T00:54:31;100035.91;;;7.64;100.00
53546;BME280;39432;51.902;10.844;2024-03-22T00:57:00;100042.22;;;7.95;100.00
53546;BME280;39432;51.902;10.844;2024-03-22T00:59:28;100041.91;;;7.85;100.00
53546;BME280;39432;51.902;10.844;2024-03-22T01:01:58;100047.38;;;8.98;100.00
53546;BME280;39432;51.902;10.844;2024-03-22T01:04:25;100035.06;;;8.96;100.00
53546;BME280;39432;51.902;10.844;2024-03-22T01:06:55;100025.41;;;8.58;100.00
53546;BME280;39432;51.902;10.844;2024-03-22T01:09:25;100023.53;;;9.41;100.00
53546;BME280;39432;51.902;10.844;2024-03-22T01:11:52;100020.59;;;8.95;100.00
53546;BME280;39432;51.902;10.844;2024-03-22T01:14:21;100014.88;;;8.97;100.00
53546;BME280;39432;51.902;10.844;2024-03-22T01:16:50;100015.91;;;9.43;100.00
53546;BME280;39432;51.902;10.844;2024-03-22T01:19:18;100009.66;;;9.19;100.00
53546;BME280;39432;51.902;10.844;2024-03-22T01:21:46;100004.06;;;9.26;100.00
53546;BME280;39432;51.902;10.844;2024-03-22T01:24:12;100005.25;;;8.59;100.00
53546;BME280;39432;51.902;10.844;2024-03-22T01:26:39;99998.59;;;8.79;100.00
53546;BME280;39432;51.902;10.844;2024-03-22T01:29:07;100005.50;;;8.69;100.00
53546;BME280;39432;51.902;10.844;2024-03-22T01:31:34;99992.69;;;9.05;100.00
53546;BME280;39432;51.902;10.844;2024-03-22T01:34:02;99992.16;;;7.78;100.00
53546;BME280;39432;51.902;10.844;2024-03-22T01:36:31;99997.03;;;8.17;100.00
53546;BME280;39432;51.902;10.844;2024-03-22T01:38:58;100009.16;;;9.34;100.00
53546;BME280;39432;51.902;10.844;2024-03-22T01:41:26;99991.41;;;8.96;100.00
53546;BME280;39432;51.902;10.844;2024-03-22T01:43:53;99984.47;;;9.17;100.00
53546;BME280;39432;51.902;10.844;2024-03-22T01:46:20;99991.88;;;9.68;100.00
53546;BME280;39432;51.902;10.844;2024-03-22T01:48:46;99980.22;;;9.61;100.00
53546;BME280;39432;51.902;10.844;2024-03-22T01:51:16;99982.94;;;8.62;100.00
53546;BME280;39432;51.902;10.844;2024-03-22T01:53:47;99986.84;;;9.37;100.00
53546;BME280;39432;51.902;10.844;2024-03-22T01:56:14;99987.34;;;8.52;100.00
53546;BME280;39432;51.902;10.844;2024-03-22T01:58:41;99988.06;;;8.29;100.00
53546;BME280;39432;51.902;10.844;2024-03-22T02:01:08;99996.72;;;7.96;100.00
53546;BME280;39432;51.902;10.844;2024-03-22T02:03:35;100016.88;;;8.25;100.00
53546;BME280;39432;51.902;10.844;2024-03-22T02:06:03;100018.31;;;7.97;100.00
53546;BME280;39432;51.902;10.844;2024-03-22T02:08:30;100017.66;;;8.13;100.00
53546;BME280;39432;51.902;10.844;2024-03-22T02:10:59;100014.47;;;8.16;100.00
53546;BME280;39432;51.902;10.844;2024-03-22T02:13:26;100002.63;;;9.11;100.00
53546;BME280;39432;51.902;10.844;2024-03-22T02:15:53;99983.13;;;9.43;100.00
53546;BME280;39432;51.902;10.844;2024-03-22T02:18:22;99965.50;;;10.19;100.00
53546;BME280;39432;51.902;10.844;2024-03-22T02:20:49;99952.72;;;8.87;100.00
53546;BME280;39432;51.902;10.844;2024-03-22T02:23:15;99952.53;;;9.17;100.00
53546;BME280;39432;51.902;10.844;2024-03-22T02:25:45;99951.28;;;9.08;100.00
53546;BME280;39432;51.902;10.844;2024-03-22T02:28:11;99941.34;;;8.90;100.00
53546;BME280;39432;51.902;10.844;2024-03-22T02:30:40;99952.09;;;9.20;100.00
53546;BME280;39432;51.902;10.844;2024-03-22T02:33:07;99953.31;;;9.01;100.00
53546;BME280;39432;51.902;10.844;2024-03-22T02:35:33;99956.38;;;8.93;100.00
53546;BME280;39432;51.902;10.844;2024-03-22T02:38:01;99954.28;;;9.47;100.00
53546;BME280;39432;51.902;10.844;2024-03-22T02:40:28;99942.50;;;9.58;100.00
53546;BME280;39432;51.902;10.844;2024-03-22T02:42:58;99933.16;;;10.62;100.00
53546;BME280;39432;51.902;10.844;2024-03-22T02:45:25;99928.25;;;10.47;100.00
53546;BME280;39432;51.902;10.844;2024-03-22T02:47:52;99925.75;;;10.79;100.00
53546;BME280;39432;51.902;10.844;2024-03-22T02:50:18;99908.72;;;9.93;100.00
53546;BME280;39432;51.902;10.844;2024-03-22T02:52:46;99907.72;;;10.61;100.00
53546;BME280;39432;51.902;10.844;2024-03-22T02:55:15;99895.75;;;10.17;100.00
53546;BME280;39432;51.902;10.844;2024-03-22T02:57:42;99888.84;;;9.52;100.00
53546;BME280;39432;51.902;10.844;2024-03-22T03:00:12;99898.03;;;8.70;100.00
53546;BME280;39432;51.902;10.844;2024-03-22T03:02:38;99905.88;;;8.55;100.00
53546;BME280;39432;51.902;10.844;2024-03-22T03:05:08;99904.91;;;8.61;100.00
53546;BME280;39432;51.902;10.844;2024-03-22T03:07:34;99916.31;;;8.70;100.00
53546;BME280;39432;51.902;10.844;2024-03-22T03:10:01;99921.69;;;9.17;100.00
53546;BME280;39432;51.902;10.844;2024-03-22T03:12:28;99919.28;;;10.18;100.00
53546;BME280;39432;51.902;10.844;2024-03-22T03:14:55;99900.28;;;9.94;100.00
53546;BME280;39432;51.902;10.844;2024-03-22T03:17:27;99892.00;;;10.73;100.00
53546;BME280;39432;51.902;10.844;2024-03-22T03:19:53;99877.38;;;10.46;100.00
53546;BME280;39432;51.902;10.844;2024-03-22T03:22:21;99863.75;;;10.68;100.00
53546;BME280;39432;51.902;10.844;2024-03-22T03:24:47;99849.63;;;10.98;100.00
53546;BME280;39432;51.902;10.844;2024-03-22T03:27:15;99835.78;;;10.44;100.00
53546;BME280;39432;51.902;10.844;2024-03-22T03:29:42;99831.47;;;11.35;100.00
53546;BME280;39432;51.902;10.844;2024-03-22T03:32:09;99808.81;;;10.74;100.00
53546;BME280;39432;51.902;10.844;2024-03-22T03:34:39;99806.00;;;10.69;100.00
53546;BME280;39432;51.902;10.844;2024-03-22T03:37:08;99819.81;;;9.57;100.00
53546;BME280;39432;51.902;10.844;2024-03-22T03:39:34;99820.94;;;10.06;100.00
53546;BME280;39432;51.902;10.844;2024-03-22T03:42:02;99812.94;;;10.21;100.00
53546;BME280;39432;51.902;10.844;2024-03-22T03:44:29;99825.81;;;9.87;100.00
53546;BME280;39432;51.902;10.844;2024-03-22T03:46:55;99819.28;;;10.77;100.00
53546;BME280;39432;51.902;10.844;2024-03-22T03:49:22;99816.41;;;10.28;100.00
53546;BME280;39432;51.902;10.844;2024-03-22T03:51:51;99817.84;;;9.86;100.00
53546;BME280;39432;51.902;10.844;2024-03-22T03:54:18;99817.97;;;10.24;100.00
53546;BME280;39432;51.902;10.844;2024-03-22T03:56:47;99819.69;;;9.97;100.00
53546;BME280;39432;51.902;10.844;2024-03-22T03:59:13;99817.34;;;9.89;100.00
53546;BME280;39432;51.902;10.844;2024-03-22T04:01:42;99817.53;;;10.49;100.00
53546;BME280;39432;51.902;10.844;2024-03-22T04:04:23;99805.69;;;10.66;100.00
53546;BME280;39432;51.902;10.844;2024-03-22T04:06:53;99790.00;;;9.72;100.00
53546;BME280;39432;51.902;10.844;2024-03-22T04:09:19;99800.53;;;10.69;100.00
53546;BME280;39432;51.902;10.844;2024-03-22T04:11:46;99789.66;;;10.96;100.00
53546;BME280;39432;51.902;10.844;2024-03-22T04:14:15;99782.19;;;10.48;100.00
53546;BME280;39432;51.902;10.844;2024-03-22T04:16:42;99780.88;;;10.94;100.00
53546;BME280;39432;51.902;10.844;2024-03-22T04:19:08;99776.09;;;10.41;100.00
53546;BME280;39432;51.902;10.844;2024-03-22T04:21:36;99780.44;;;10.59;100.00
53546;BME280;39432;51.902;10.844;2024-03-22T04:24:06;99762.97;;;10.87;100.00
53546;BME280;39432;51.902;10.844;2024-03-22T04:26:33;99768.94;;;11.27;100.00
53546;BME280;39432;51.902;10.844;2024-03-22T04:29:00;99757.94;;;11.81;100.00
53546;BME280;39432;51.902;10.844;2024-03-22T04:31:27;99744.41;;;10.89;100.00
53546;BME280;39432;51.902;10.844;2024-03-22T04:33:53;99741.81;;;10.55;100.00
53546;BME280;39432;51.902;10.844;2024-03-22T04:36:21;99746.59;;;10.09;100.00
53546;BME280;39432;51.902;10.844;2024-03-22T04:38:49;99747.00;;;10.35;100.00
53546;BME280;39432;51.902;10.844;2024-03-22T04:41:18;99744.44;;;11.16;100.00
53546;BME280;39432;51.902;10.844;2024-03-22T04:43:47;99729.75;;;11.00;100.00
53546;BME280;39432;51.902;10.844;2024-03-22T04:46:15;99728.50;;;11.13;100.00
53546;BME280;39432;51.902;10.844;2024-03-22T04:48:42;99727.69;;;11.12;100.00
53546;BME280;39432;51.902;10.844;2024-03-22T04:51:09;99704.84;;;11.60;100.00
53546;BME280;39432;51.902;10.844;2024-03-22T04:53:36;99715.63;;;11.72;100.00
53546;BME280;39432;51.902;10.844;2024-03-22T04:56:04;99716.06;;;11.00;100.00
53546;BME280;39432;51.902;10.844;2024-03-22T04:58:33;99705.59;;;11.51;100.00
53546;BME280;39432;51.902;10.844;2024-03-22T05:01:00;99717.88;;;11.16;100.00
53546;BME280;39432;51.902;10.844;2024-03-22T05:03:28;99712.69;;;10.93;100.00
53546;BME280;39432;51.902;10.844;2024-03-22T05:05:55;99699.09;;;11.30;100.00
53546;BME280;39432;51.902;10.844;2024-03-22T05:08:26;99701.78;;;10.49;100.00
53546;BME280;39432;51.902;10.844;2024-03-22T05:10:54;99708.47;;;11.07;100.00
53546;BME280;39432;51.902;10.844;2024-03-22T05:13:23;99696.22;;;11.47;100.00
53546;BME280;39432;51.902;10.844;2024-03-22T05:15:52;99688.81;;;11.79;100.00
53546;BME280;39432;51.902;10.844;2024-03-22T05:18:19;99691.00;;;10.86;100.00
53546;BME280;39432;51.902;10.844;2024-03-22T05:20:49;99690.25;;;11.50;100.00
53546;BME280;39432;51.902;10.844;2024-03-22T05:23:17;99681.38;;;11.75;100.00
53546;BME280;39432;51.902;10.844;2024-03-22T05:25:44;99673.56;;;10.70;100.00
53546;BME280;39432;51.902;10.844;2024-03-22T05:28:10;99681.09;;;10.58;100.00
53546;BME280;39432;51.902;10.844;2024-03-22T05:30:37;99676.34;;;10.26;100.00
53546;BME280;39432;51.902;10.844;2024-03-22T05:33:06;99687.50;;;9.86;100.00
53546;BME280;39432;51.902;10.844;2024-03-22T05:35:33;99682.81;;;10.42;100.00
53546;BME280;39432;51.902;10.844;2024-03-22T05:38:04;99678.03;;;10.76;100.00
53546;BME280;39432;51.902;10.844;2024-03-22T05:40:35;99674.22;;;10.77;100.00
53546;BME280;39432;51.902;10.844;2024-03-22T05:43:03;99668.50;;;10.79;100.00
53546;BME280;39432;51.902;10.844;2024-03-22T05:45:29;99665.00;;;11.48;100.00
53546;BME280;39432;51.902;10.844;2024-03-22T05:47:56;99654.88;;;11.85;100.00
53546;BME280;39432;51.902;10.844;2024-03-22T05:50:25;99650.56;;;11.25;100.00
53546;BME280;39432;51.902;10.844;2024-03-22T05:52:51;99654.31;;;10.87;100.00
53546;BME280;39432;51.902;10.844;2024-03-22T05:55:17;99655.69;;;10.85;100.00
53546;BME280;39432;51.902;10.844;2024-03-22T05:57:47;99669.00;;;11.03;100.00
53546;BME280;39432;51.902;10.844;2024-03-22T06:00:14;99669.00;;;11.03;100.00
53546;BME280;39432;51.902;10.844;2024-03-22T06:02:41;99678.72;;;11.16;100.00
53546;BME280;39432;51.902;10.844;2024-03-22T06:05:08;99672.88;;;11.39;100.00
53546;BME280;39432;51.902;10.844;2024-03-22T06:07:42;99674.63;;;11.50;100.00
53546;BME280;39432;51.902;10.844;2024-03-22T06:10:09;99671.56;;;11.47;100.00
53546;BME280;39432;51.902;10.844;2024-03-22T06:12:37;99670.94;;;11.34;100.00
53546;BME280;39432;51.902;10.844;2024-03-22T06:15:06;99668.53;;;11.43;100.00
53546;BME280;39432;51.902;10.844;2024-03-22T06:17:34;99672.19;;;11.54;100.00
53546;BME280;39432;51.902;10.844;2024-03-22T06:20:01;99667.84;;;11.63;100.00
53546;BME280;39432;51.902;10.844;2024-03-22T06:22:30;99669.56;;;11.74;100.00
53546;BME280;39432;51.902;10.844;2024-03-22T06:24:59;99673.56;;;11.89;100.00
53546;BME280;39432;51.902;10.844;2024-03-22T06:27:29;99676.91;;;12.01;100.00
53546;BME280;39432;51.902;10.844;2024-03-22T06:29:55;99676.56;;;11.92;100.00
53546;BME280;39432;51.902;10.844;2024-03-22T06:32:23;99678.50;;;11.92;100.00
53546;BME280;39432;51.902;10.844;2024-03-22T06:34:55;99674.72;;;11.98;100.00
53546;BME280;39432;51.902;10.844;2024-03-22T06:37:22;99677.59;;;12.23;100.00
53546;BME280;39432;51.902;10.844;2024-03-22T06:39:48;99675.00;;;12.59;100.00
53546;BME280;39432;51.902;10.844;2024-03-22T06:42:18;99678.16;;;12.30;100.00
53546;BME280;39432;51.902;10.844;2024-03-22T06:44:46;99688.31;;;12.30;100.00
53546;BME280;39432;51.902;10.844;2024-03-22T06:47:13;99683.50;;;12.62;100.00
53546;BME280;39432;51.902;10.844;2024-03-22T06:49:42;99677.72;;;12.54;100.00
53546;BME280;39432;51.902;10.844;2024-03-22T06:52:11;99666.50;;;12.60;100.00
53546;BME280;39432;51.902;10.844;2024-03-22T06:54:37;99660.56;;;12.16;100.00
53546;BME280;39432;51.902;10.844;2024-03-22T06:57:04;99648.41;;;12.80;100.00
53546;BME280;39432;51.902;10.844;2024-03-22T06:59:35;99639.78;;;12.40;100.00
53546;BME280;39432;51.902;10.844;2024-03-22T07:02:05;99631.09;;;12.64;100.00
53546;BME280;39432;51.902;10.844;2024-03-22T07:04:36;99626.47;;;12.07;100.00
53546;BME280;39432;51.902;10.844;2024-03-22T07:07:03;99629.28;;;12.17;100.00
53546;BME280;39432;51.902;10.844;2024-03-22T07:09:32;99618.25;;;12.07;100.00
53546;BME280;39432;51.902;10.844;2024-03-22T07:12:01;99611.00;;;11.85;100.00
53546;BME280;39432;51.902;10.844;2024-03-22T07:14:27;99613.88;;;12.06;100.00
53546;BME280;39432;51.902;10.844;2024-03-22T07:16:57;99604.31;;;12.19;100.00
53546;BME280;39432;51.902;10.844;2024-03-22T07:19:23;99609.00;;;12.23;100.00
53546;BME280;39432;51.902;10.844;2024-03-22T07:21:50;99593.13;;;12.35;100.00
53546;BME280;39432;51.902;10.844;2024-03-22T07:24:17;99598.09;;;12.44;100.00
53546;BME280;39432;51.902;10.844;2024-03-22T07:26:46;99591.00;;;12.48;100.00
53546;BME280;39432;51.902;10.844;2024-03-22T07:29:13;99585.75;;;12.51;100.00
53546;BME280;39432;51.902;10.844;2024-03-22T07:31:39;99585.50;;;12.58;100.00
53546;BME280;39432;51.902;10.844;2024-03-22T07:34:09;99589.34;;;12.57;100.00
53546;BME280;39432;51.902;10.844;2024-03-22T07:36:39;99576.19;;;12.79;100.00
53546;BME280;39432;51.902;10.844;2024-03-22T07:39:08;99576.22;;;13.00;100.00
53546;BME280;39432;51.902;10.844;2024-03-22T07:41:37;99567.41;;;13.13;100.00
53546;BME280;39432;51.902;10.844;2024-03-22T07:44:04;99569.94;;;13.30;100.00
53546;BME280;39432;51.902;10.844;2024-03-22T07:46:38;99560.31;;;13.37;100.00
53546;BME280;39432;51.902;10.844;2024-03-22T07:49:09;99551.09;;;13.83;100.00
53546;BME280;39432;51.902;10.844;2024-03-22T07:51:38;99549.16;;;13.88;100.00
53546;BME280;39432;51.902;10.844;2024-03-22T07:54:05;99537.78;;;14.65;100.00
53546;BME280;39432;51.902;10.844;2024-03-22T07:56:32;99530.75;;;13.84;100.00
53546;BME280;39432;51.902;10.844;2024-03-22T07:58:59;99539.50;;;14.01;100.00
53546;BME280;39432;51.902;10.844;2024-03-22T08:01:25;99539.72;;;14.10;100.00
53546;BME280;39432;51.902;10.844;2024-03-22T08:03:52;99531.06;;;13.77;100.00
53546;BME280;39432;51.902;10.844;2024-03-22T08:06:22;99524.00;;;13.40;100.00
53546;BME280;39432;51.902;10.844;2024-03-22T08:08:51;99519.63;;;13.34;100.00
53546;BME280;39432;51.902;10.844;2024-03-22T08:11:18;99516.34;;;13.32;100.00
53546;BME280;39432;51.902;10.844;2024-03-22T08:13:47;99515.22;;;13.13;100.00
53546;BME280;39432;51.902;10.844;2024-03-22T08:16:13;99512.78;;;13.22;100.00
53546;BME280;39432;51.902;10.844;2024-03-22T08:18:41;99519.63;;;13.39;100.00
53546;BME280;39432;51.902;10.844;2024-03-22T08:21:12;99503.94;;;13.35;100.00
53546;BME280;39432;51.902;10.844;2024-03-22T08:23:43;99502.31;;;13.29;100.00
53546;BME280;39432;51.902;10.844;2024-03-22T08:26:09;99502.31;;;13.34;100.00
53546;BME280;39432;51.902;10.844;2024-03-22T08:28:38;99498.16;;;13.52;100.00
53546;BME280;39432;51.902;10.844;2024-03-22T08:31:05;99488.75;;;13.68;100.00
53546;BME280;39432;51.902;10.844;2024-03-22T08:33:34;99492.00;;;13.80;100.00
53546;BME280;39432;51.902;10.844;2024-03-22T08:36:03;99493.38;;;13.78;100.00
53546;BME280;39432;51.902;10.844;2024-03-22T08:38:31;99494.53;;;13.61;100.00
53546;BME280;39432;51.902;10.844;2024-03-22T08:41:00;99493.69;;;13.71;100.00
53546;BME280;39432;51.902;10.844;2024-03-22T08:43:26;99475.00;;;13.68;100.00
53546;BME280;39432;51.902;10.844;2024-03-22T08:45:54;99472.16;;;13.88;100.00
53546;BME280;39432;51.902;10.844;2024-03-22T08:48:22;99467.19;;;13.95;100.00
53546;BME280;39432;51.902;10.844;2024-03-22T08:50:49;99460.03;;;13.89;100.00
53546;BME280;39432;51.902;10.844;2024-03-22T08:53:16;99457.03;;;13.86;100.00
53546;BME280;39432;51.902;10.844;2024-03-22T08:55:46;99456.69;;;14.03;100.00
53546;BME280;39432;51.902;10.844;2024-03-22T08:58:16;99462.19;;;14.03;100.00
53546;BME280;39432;51.902;10.844;2024-03-22T09:00:46;99456.13;;;14.01;100.00
53546;BME280;39432;51.902;10.844;2024-03-22T09:03:13;99456.72;;;13.92;100.00
53546;BME280;39432;51.902;10.844;2024-03-22T09:05:45;99458.38;;;13.93;100.00
53546;BME280;39432;51.902;10.844;2024-03-22T09:08:14;99465.47;;;14.05;100.00
53546;BME280;39432;51.902;10.844;2024-03-22T09:10:41;99463.31;;;13.96;100.00
53546;BME280;39432;51.902;10.844;2024-03-22T09:13:10;99466.47;;;14.19;100.00
53546;BME280;39432;51.902;10.844;2024-03-22T09:15:39;99458.78;;;14.16;100.00
53546;BME280;39432;51.902;10.844;2024-03-22T09:18:06;99462.63;;;14.20;100.00
53546;BME280;39432;51.902;10.844;2024-03-22T09:20:32;99468.59;;;14.32;100.00
53546;BME280;39432;51.902;10.844;2024-03-22T09:22:58;99464.19;;;14.31;100.00
53546;BME280;39432;51.902;10.844;2024-03-22T09:25:28;99463.38;;;14.31;100.00
53546;BME280;39432;51.902;10.844;2024-03-22T09:27:55;99458.13;;;14.34;100.00
53546;BME280;39432;51.902;10.844;2024-03-22T09:30:22;99456.78;;;14.27;100.00
53546;BME280;39432;51.902;10.844;2024-03-22T09:32:53;99448.84;;;14.64;100.00
53546;BME280;39432;51.902;10.844;2024-03-22T09:35:27;99452.16;;;15.19;100.00
53546;BME280;39432;51.902;10.844;2024-03-22T09:37:55;99438.84;;;14.73;100.00
53546;BME280;39432;51.902;10.844;2024-03-22T09:40:24;99438.03;;;14.73;100.00
53546;BME280;39432;51.902;10.844;2024-03-22T09:42:58;99444.75;;;14.91;100.00
53546;BME280;39432;51.902;10.844;2024-03-22T09:45:27;99436.56;;;14.46;100.00
53546;BME280;39432;51.902;10.844;2024-03-22T09:47:58;99429.06;;;14.18;100.00
53546;BME280;39432;51.902;10.844;2024-03-22T09:50:25;99435.09;;;14.20;100.00
53546;BME280;39432;51.902;10.844;2024-03-22T09:52:56;99431.72;;;14.28;100.00
53546;BME280;39432;51.902;10.844;2024-03-22T09:55:23;99422.53;;;14.09;100.00
53546;BME280;39432;51.902;10.844;2024-03-22T09:57:51;99422.06;;;13.96;100.00
53546;BME280;39432;51.902;10.844;2024-03-22T10:00:19;99415.31;;;14.18;100.00
53546;BME280;39432;51.902;10.844;2024-03-22T10:02:48;99414.75;;;14.16;100.00
53546;BME280;39432;51.902;10.844;2024-03-22T10:05:19;99411.81;;;14.41;100.00
53546;BME280;39432;51.902;10.844;2024-03-22T10:07:46;99410.56;;;14.29;100.00
53546;BME280;39432;51.902;10.844;2024-03-22T10:10:12;99409.28;;;14.11;100.00
53546;BME280;39432;51.902;10.844;2024-03-22T10:12:41;99403.78;;;14.11;100.00
53546;BME280;39432;51.902;10.844;2024-03-22T10:15:08;99398.69;;;13.94;100.00
53546;BME280;39432;51.902;10.844;2024-03-22T10:17:35;99401.66;;;14.03;100.00
53546;BME280;39432;51.902;10.844;2024-03-22T10:20:06;99403.34;;;14.33;100.00
53546;BME280;39432;51.902;10.844;2024-03-22T10:22:38;99392.59;;;14.36;100.00
53546;BME280;39432;51.902;10.844;2024-03-22T10:25:04;99396.91;;;14.53;100.00
53546;BME280;39432;51.902;10.844;2024-03-22T10:27:33;99401.25;;;14.59;100.00
53546;BME280;39432;51.902;10.844;2024-03-22T10:30:05;99391.69;;;15.04;100.00
53546;BME280;39432;51.902;10.844;2024-03-22T10:32:35;99387.03;;;14.75;100.00
53546;BME280;39432;51.902;10.844;2024-03-22T10:35:15;99379.41;;;14.33;100.00
53546;BME280;39432;51.902;10.844;2024-03-22T10:37:45;99374.19;;;14.32;100.00
53546;BME280;39432;51.902;10.844;2024-03-22T10:40:13;99379.00;;;14.16;100.00
53546;BME280;39432;51.902;10.844;2024-03-22T10:42:41;99367.44;;;14.19;100.00
53546;BME280;39432;51.902;10.844;2024-03-22T10:45:12;99364.03;;;14.27;100.00
53546;BME280;39432;51.902;10.844;2024-03-22T10:47:39;99346.09;;;14.35;100.00
53546;BME280;39432;51.902;10.844;2024-03-22T10:50:07;99334.41;;;14.19;100.00
53546;BME280;39432;51.902;10.844;2024-03-22T10:52:38;99334.94;;;14.21;100.00
53546;BME280;39432;51.902;10.844;2024-03-22T10:55:13;99332.47;;;14.54;100.00
53546;BME280;39432;51.902;10.844;2024-03-22T10:57:45;99338.06;;;14.38;100.00
53546;BME280;39432;51.902;10.844;2024-03-22T11:00:17;99329.09;;;14.28;100.00
53546;BME280;39432;51.902;10.844;2024-03-22T11:02:55;99325.38;;;14.47;100.00
53546;BME280;39432;51.902;10.844;2024-03-22T11:05:25;99310.91;;;14.61;100.00
53546;BME280;39432;51.902;10.844;2024-03-22T11:07:59;99308.38;;;14.35;100.00
53546;BME280;39432;51.902;10.844;2024-03-22T11:10:29;99295.59;;;14.49;100.00
53546;BME280;39432;51.902;10.844;2024-03-22T11:13:00;99295.50;;;14.60;100.00
53546;BME280;39432;51.902;10.844;2024-03-22T11:15:28;99304.41;;;14.52;100.00
53546;BME280;39432;51.902;10.844;2024-03-22T11:17:56;99293.47;;;14.41;100.00
53546;BME280;39432;51.902;10.844;2024-03-22T11:20:23;99286.53;;;14.49;100.00
53546;BME280;39432;51.902;10.844;2024-03-22T11:22:51;99276.22;;;14.60;100.00
53546;BME280;39432;51.902;10.844;2024-03-22T11:25:32;99275.94;;;14.85;100.00
53546;BME280;39432;51.902;10.844;2024-03-22T11:28:01;99271.13;;;14.72;100.00
53546;BME280;39432;51.902;10.844;2024-03-22T11:30:28;99260.19;;;14.67;100.00
53546;BME280;39432;51.902;10.844;2024-03-22T11:32:55;99256.59;;;14.66;100.00
53546;BME280;39432;51.902;10.844;2024-03-22T11:35:23;99264.78;;;14.71;100.00
53546;BME280;39432;51.902;10.844;2024-03-22T11:37:52;99257.28;;;14.77;100.00
53546;BME280;39432;51.902;10.844;2024-03-22T11:40:19;99264.81;;;14.95;100.00
53546;BME280;39432;51.902;10.844;2024-03-22T11:42:52;99259.34;;;14.90;100.00
53546;BME280;39432;51.902;10.844;2024-03-22T11:45:21;99258.22;;;14.91;100.00
53546;BME280;39432;51.902;10.844;2024-03-22T11:47:49;99253.22;;;14.93;100.00
53546;BME280;39432;51.902;10.844;2024-03-22T11:50:17;99258.34;;;14.81;100.00
53546;BME280;39432;51.902;10.844;2024-03-22T11:52:46;99250.28;;;14.90;100.00
53546;BME280;39432;51.902;10.844;2024-03-22T11:55:20;99248.97;;;15.06;100.00
53546;BME280;39432;51.902;10.844;2024-03-22T11:57:52;99247.63;;;15.22;100.00
53546;BME280;39432;51.902;10.844;2024-03-22T12:00:19;99243.81;;;15.18;100.00
53546;BME280;39432;51.902;10.844;2024-03-22T12:02:45;99249.63;;;15.17;100.00
53546;BME280;39432;51.902;10.844;2024-03-22T12:05:12;99245.28;;;15.11;100.00
53546;BME280;39432;51.902;10.844;2024-03-22T12:07:39;99237.94;;;15.06;100.00
53546;BME280;39432;51.902;10.844;2024-03-22T12:10:07;99232.94;;;15.27;100.00
53546;BME280;39432;51.902;10.844;2024-03-22T12:12:34;99230.03;;;15.18;100.00
53546;BME280;39432;51.902;10.844;2024-03-22T12:15:06;99228.63;;;15.21;100.00
53546;BME280;39432;51.902;10.844;2024-03-22T12:17:33;99216.91;;;15.48;100.00
53546;BME280;39432;51.902;10.844;2024-03-22T12:20:01;99220.81;;;15.28;100.00
53546;BME280;39432;51.902;10.844;2024-03-22T12:22:28;99219.53;;;15.39;100.00
53546;BME280;39432;51.902;10.844;2024-03-22T12:24:56;99207.56;;;15.11;100.00
53546;BME280;39432;51.902;10.844;2024-03-22T12:27:24;99214.31;;;15.19;100.00
53546;BME280;39432;51.902;10.844;2024-03-22T12:29:54;99216.69;;;15.25;100.00
53546;BME280;39432;51.902;10.844;2024-03-22T12:32:25;99205.28;;;15.32;100.00
53546;BME280;39432;51.902;10.844;2024-03-22T12:34:51;99206.22;;;15.27;100.00
53546;BME280;39432;51.902;10.844;2024-03-22T12:37:18;99208.72;;;15.05;100.00
53546;BME280;39432;51.902;10.844;2024-03-22T12:39:45;99197.84;;;15.14;100.00
53546;BME280;39432;51.902;10.844;2024-03-22T12:42:17;99205.31;;;15.13;100.00
53546;BME280;39432;51.902;10.844;2024-03-22T12:44:51;99212.22;;;15.11;100.00